sensor_id;sensor_type;location;lat;lon;timestamp;pressure;altitude;pressure_sealevel;temperature
24586;BMP280;12743;52.262;6.172;2023-04-01T00:02:23;97492.88;;;9.36
24586;BMP280;12743;52.262;6.172;2023-04-01T00:04:49;97481.34;;;9.30
24586;BMP280;12743;52.262;6.172;2023-04-01T00:07:16;97488.03;;;9.35
24586;BMP280;12743;52.262;6.172;2023-04-01T00:09:43;97485.88;;;9.30
24586;BMP280;12743;52.262;6.172;2023-04-01T00:12:09;97489.19;;;9.30
24586;BMP280;12743;52.262;6.172;2023-04-01T00:14:36;97468.78;;;9.18
24586;BMP280;12743;52.262;6.172;2023-04-01T00:17:03;97488.06;;;9.31
24586;BMP280;12743;52.262;6.172;2023-04-01T00:19:30;97488.81;;;9.32
24586;BMP280;12743;52.262;6.172;2023-04-01T00:21:58;97465.41;;;9.18
24586;BMP280;12743;52.262;6.172;2023-04-01T00:24:24;97473.16;;;9.28
24586;BMP280;12743;52.262;6.172;2023-04-01T00:26:51;97469.13;;;9.20
24586;BMP280;12743;52.262;6.172;2023-04-01T00:29:18;97476.13;;;9.27
24586;BMP280;12743;52.262;6.172;2023-04-01T00:31:44;97485.09;;;9.33
24586;BMP280;12743;52.262;6.172;2023-04-01T00:34:11;97489.94;;;9.31
24586;BMP280;12743;52.262;6.172;2023-04-01T00:36:38;97475.75;;;9.28
24586;BMP280;12743;52.262;6.172;2023-04-01T00:39:05;97485.50;;;9.28
24586;BMP280;12743;52.262;6.172;2023-04-01T00:41:31;97485.13;;;9.29
24586;BMP280;12743;52.262;6.172;2023-04-01T00:44:21;97483.53;;;9.35
24586;BMP280;12743;52.262;6.172;2023-04-01T00:46:48;97487.00;;;9.29
24586;BMP280;12743;52.262;6.172;2023-04-01T00:49:17;97488.44;;;9.33
24586;BMP280;12743;52.262;6.172;2023-04-01T00:51:47;97491.00;;;9.37
24586;BMP280;12743;52.262;6.172;2023-04-01T00:54:16;97483.59;;;9.32
24586;BMP280;12743;52.262;6.172;2023-04-01T00:56:49;97464.03;;;9.10
24586;BMP280;12743;52.262;6.172;2023-04-01T00:59:24;97458.78;;;9.10
24586;BMP280;12743;52.262;6.172;2023-04-01T01:01:51;97486.25;;;9.28
24586;BMP280;12743;52.262;6.172;2023-04-01T01:04:26;97491.75;;;9.34
24586;BMP280;12743;52.262;6.172;2023-04-01T01:12:15;97494.38;;;9.34
24586;BMP280;12743;52.262;6.172;2023-04-01T01:14:53;97495.09;;;9.38
24586;BMP280;12743;52.262;6.172;2023-04-01T01:17:45;97499.59;;;9.37
24586;BMP280;12743;52.262;6.172;2023-04-01T01:26:54;97501.84;;;9.39
24586;BMP280;12743;52.262;6.172;2023-04-01T01:29:40;97499.22;;;9.39
24586;BMP280;12743;52.262;6.172;2023-04-01T01:37:47;97461.41;;;9.10
24586;BMP280;12743;52.262;6.172;2023-04-01T01:40:16;97495.84;;;9.38
24586;BMP280;12743;52.262;6.172;2023-04-01T01:42:46;97495.06;;;9.42
24586;BMP280;12743;52.262;6.172;2023-04-01T01:45:16;97495.84;;;9.38
24586;BMP280;12743;52.262;6.172;2023-04-01T01:47:46;97497.69;;;9.42
24586;BMP280;12743;52.262;6.172;2023-04-01T01:50:15;97477.59;;;9.31
24586;BMP280;12743;52.262;6.172;2023-04-01T01:52:42;97485.41;;;9.35
24586;BMP280;12743;52.262;6.172;2023-04-01T01:55:27;97487.91;;;9.46
24586;BMP280;12743;52.262;6.172;2023-04-01T01:57:58;97453.06;;;9.18
24586;BMP280;12743;52.262;6.172;2023-04-01T02:00:27;97490.25;;;9.40
24586;BMP280;12743;52.262;6.172;2023-04-01T02:02:54;97493.97;;;9.39
24586;BMP280;12743;52.262;6.172;2023-04-01T02:05:24;97453.06;;;9.18
24586;BMP280;12743;52.262;6.172;2023-04-01T02:10:28;97488.00;;;9.38
24586;BMP280;12743;52.262;6.172;2023-04-01T02:13:01;97486.47;;;9.41
24586;BMP280;12743;52.262;6.172;2023-04-01T02:15:31;97498.44;;;9.42
24586;BMP280;12743;52.262;6.172;2023-04-01T02:18:02;97494.34;;;9.37
24586;BMP280;12743;52.262;6.172;2023-04-01T02:20:29;97494.72;;;9.39
24586;BMP280;12743;52.262;6.172;2023-04-01T02:22:56;97505.56;;;9.38
24586;BMP280;12743;52.262;6.172;2023-04-01T02:25:33;97464.38;;;9.12
24586;BMP280;12743;52.262;6.172;2023-04-01T02:28:02;97507.44;;;9.37
24586;BMP280;12743;52.262;6.172;2023-04-01T02:30:32;97511.19;;;9.40
24586;BMP280;12743;52.262;6.172;2023-04-01T02:33:00;97511.94;;;9.37
24586;BMP280;12743;52.262;6.172;2023-04-01T02:35:29;97507.16;;;9.32
24586;BMP280;12743;52.262;6.172;2023-04-01T02:37:56;97462.34;;;8.89
24586;BMP280;12743;52.262;6.172;2023-04-01T02:40:23;97524.34;;;9.33
24586;BMP280;12743;52.262;6.172;2023-04-01T02:42:50;97528.00;;;9.39
24586;BMP280;12743;52.262;6.172;2023-04-01T02:45:17;97531.75;;;9.38
24586;BMP280;12743;52.262;6.172;2023-04-01T02:47:44;97531.78;;;9.34
24586;BMP280;12743;52.262;6.172;2023-04-01T02:50:10;97535.13;;;9.38
24586;BMP280;12743;52.262;6.172;2023-04-01T02:52:37;97543.00;;;9.35
24586;BMP280;12743;52.262;6.172;2023-04-01T02:55:06;97541.47;;;9.37
24586;BMP280;12743;52.262;6.172;2023-04-01T02:57:33;97540.00;;;9.36
24586;BMP280;12743;52.262;6.172;2023-04-01T03:00:00;97512.50;;;9.21
24586;BMP280;12743;52.262;6.172;2023-04-01T03:02:26;97542.97;;;9.38
24586;BMP280;12743;52.262;6.172;2023-04-01T03:04:53;97546.75;;;9.34
24586;BMP280;12743;52.262;6.172;2023-04-01T03:07:20;97551.19;;;9.37
24586;BMP280;12743;52.262;6.172;2023-04-01T03:09:48;97547.53;;;9.31
24586;BMP280;12743;52.262;6.172;2023-04-01T03:12:14;97559.50;;;9.32
24586;BMP280;12743;52.262;6.172;2023-04-01T03:14:48;97566.25;;;9.33
24586;BMP280;12743;52.262;6.172;2023-04-01T03:17:15;97571.06;;;9.34
24586;BMP280;12743;52.262;6.172;2023-04-01T03:19:41;97574.47;;;9.31
24586;BMP280;12743;52.262;6.172;2023-04-01T03:22:10;97576.72;;;9.33
24586;BMP280;12743;52.262;6.172;2023-04-01T03:24:37;97576.75;;;9.26
24586;BMP280;12743;52.262;6.172;2023-04-01T03:27:03;97576.75;;;9.26
24586;BMP280;12743;52.262;6.172;2023-04-01T03:29:30;97568.63;;;9.17
24586;BMP280;12743;52.262;6.172;2023-04-01T03:31:57;97582.78;;;9.23
24586;BMP280;12743;52.262;6.172;2023-04-01T03:34:25;97584.63;;;9.26
24586;BMP280;12743;52.262;6.172;2023-04-01T03:36:52;97587.66;;;9.21
24586;BMP280;12743;52.262;6.172;2023-04-01T03:39:19;97582.84;;;9.16
24586;BMP280;12743;52.262;6.172;2023-04-01T03:41:46;97562.81;;;8.99
24586;BMP280;12743;52.262;6.172;2023-04-01T03:44:13;97591.41;;;9.20
24586;BMP280;12743;52.262;6.172;2023-04-01T03:46:40;97598.50;;;9.23
24586;BMP280;12743;52.262;6.172;2023-04-01T03:49:08;97603.75;;;9.23
24586;BMP280;12743;52.262;6.172;2023-04-01T03:51:38;97602.25;;;9.22
24586;BMP280;12743;52.262;6.172;2023-04-01T03:54:05;97603.75;;;9.19
24586;BMP280;12743;52.262;6.172;2023-04-01T03:56:32;97586.63;;;9.08
24586;BMP280;12743;52.262;6.172;2023-04-01T03:59:02;97611.63;;;9.16
24586;BMP280;12743;52.262;6.172;2023-04-01T04:01:29;97586.28;;;9.09
24586;BMP280;12743;52.262;6.172;2023-04-01T04:03:56;97596.03;;;9.05
24586;BMP280;12743;52.262;6.172;2023-04-01T04:06:23;97617.19;;;9.21
24586;BMP280;12743;52.262;6.172;2023-04-01T04:08:51;97606.00;;;9.17
24586;BMP280;12743;52.262;6.172;2023-04-01T04:11:18;97606.38;;;9.19
24586;BMP280;12743;52.262;6.172;2023-04-01T04:13:46;97607.56;;;9.08
24586;BMP280;12743;52.262;6.172;2023-04-01T04:16:16;97623.19;;;9.18
24586;BMP280;12743;52.262;6.172;2023-04-01T04:18:47;97613.81;;;9.21
24586;BMP280;12743;52.262;6.172;2023-04-01T04:21:14;97588.13;;;9.12
24586;BMP280;12743;52.262;6.172;2023-04-01T04:23:42;97617.91;;;9.25
24586;BMP280;12743;52.262;6.172;2023-04-01T04:26:12;97625.44;;;9.20
24586;BMP280;12743;52.262;6.172;2023-04-01T04:28:39;97622.06;;;9.23
24586;BMP280;12743;52.262;6.172;2023-04-01T04:31:06;97627.28;;;9.23
24586;BMP280;12743;52.262;6.172;2023-04-01T04:33:35;97639.66;;;9.19
24586;BMP280;12743;52.262;6.172;2023-04-01T04:36:03;97638.88;;;9.22
24586;BMP280;12743;52.262;6.172;2023-04-01T04:38:31;97615.88;;;9.03
24586;BMP280;12743;52.262;6.172;2023-04-01T04:40:58;97646.00;;;9.18
24586;BMP280;12743;52.262;6.172;2023-04-01T04:43:25;97641.91;;;9.17
24586;BMP280;12743;52.262;6.172;2023-04-01T04:45:51;97653.16;;;9.14
24586;BMP280;12743;52.262;6.172;2023-04-01T04:48:18;97649.38;;;9.15
24586;BMP280;12743;52.262;6.172;2023-04-01T04:50:48;97659.84;;;9.18
24586;BMP280;12743;52.262;6.172;2023-04-01T04:53:18;97650.50;;;9.17
24586;BMP280;12743;52.262;6.172;2023-04-01T04:55:47;97653.09;;;9.17
24586;BMP280;12743;52.262;6.172;2023-04-01T04:58:37;97652.38;;;9.17
24586;BMP280;12743;52.262;6.172;2023-04-01T05:01:10;97660.19;;;9.24
24586;BMP280;12743;52.262;6.172;2023-04-01T05:03:38;97665.06;;;9.22
24586;BMP280;12743;52.262;6.172;2023-04-01T05:06:07;97668.78;;;9.21
24586;BMP280;12743;52.262;6.172;2023-04-01T05:08:34;97669.50;;;9.25
24586;BMP280;12743;52.262;6.172;2023-04-01T05:11:02;97668.75;;;9.24
24586;BMP280;12743;52.262;6.172;2023-04-01T05:13:31;97672.53;;;9.23
24586;BMP280;12743;52.262;6.172;2023-04-01T05:15:58;97682.25;;;9.23
24586;BMP280;12743;52.262;6.172;2023-04-01T05:18:24;97678.16;;;9.18
24586;BMP280;12743;52.262;6.172;2023-04-01T05:20:53;97646.47;;;9.06
24586;BMP280;12743;52.262;6.172;2023-04-01T05:23:21;97682.94;;;9.27
24586;BMP280;12743;52.262;6.172;2023-04-01T05:25:48;97653.19;;;9.10
24586;BMP280;12743;52.262;6.172;2023-04-01T05:28:16;97684.84;;;9.26
24586;BMP280;12743;52.262;6.172;2023-04-01T05:30:45;97684.81;;;9.30
24586;BMP280;12743;52.262;6.172;2023-04-01T05:33:23;97690.06;;;9.30
24586;BMP280;12743;52.262;6.172;2023-04-01T05:35:50;97691.25;;;9.22
24586;BMP280;12743;52.262;6.172;2023-04-01T05:38:16;97699.03;;;9.29
24586;BMP280;12743;52.262;6.172;2023-04-01T05:40:43;97678.16;;;9.18
24586;BMP280;12743;52.262;6.172;2023-04-01T05:43:10;97685.25;;;9.21
24586;BMP280;12743;52.262;6.172;2023-04-01T05:45:36;97701.97;;;9.34
24586;BMP280;12743;52.262;6.172;2023-04-01T05:48:29;97713.53;;;9.37
24586;BMP280;12743;52.262;6.172;2023-04-01T05:50:57;97709.81;;;9.34
24586;BMP280;12743;52.262;6.172;2023-04-01T05:53:23;97723.66;;;9.35
24586;BMP280;12743;52.262;6.172;2023-04-01T05:55:50;97715.09;;;9.31
24586;BMP280;12743;52.262;6.172;2023-04-01T05:58:17;97728.13;;;9.38
24586;BMP280;12743;52.262;6.172;2023-04-01T06:00:46;97716.59;;;9.28
24586;BMP280;12743;52.262;6.172;2023-04-01T06:03:15;97700.59;;;9.23
24586;BMP280;12743;52.262;6.172;2023-04-01T06:05:43;97733.00;;;9.36
24586;BMP280;12743;52.262;6.172;2023-04-01T06:08:16;97737.84;;;9.41
24586;BMP280;12743;52.262;6.172;2023-04-01T06:14:14;97749.47;;;9.40
24586;BMP280;12743;52.262;6.172;2023-04-01T06:22:17;97759.84;;;9.47
24586;BMP280;12743;52.262;6.172;2023-04-01T06:27:40;97760.19;;;9.53
24586;BMP280;12743;52.262;6.172;2023-04-01T06:33:39;97767.28;;;9.56
24586;BMP280;12743;52.262;6.172;2023-04-01T06:42:10;97782.56;;;9.61
24586;BMP280;12743;52.262;6.172;2023-04-01T06:50:28;97795.25;;;9.69
24586;BMP280;12743;52.262;6.172;2023-04-01T06:54:17;97781.41;;;9.69
24586;BMP280;12743;52.262;6.172;2023-04-01T06:56:40;97768.38;;;9.58
24586;BMP280;12743;52.262;6.172;2023-04-01T06:59:18;97802.31;;;9.76
24586;BMP280;12743;52.262;6.172;2023-04-01T07:04:37;97807.94;;;9.71
24586;BMP280;12743;52.262;6.172;2023-04-01T07:07:13;97745.75;;;9.30
24586;BMP280;12743;52.262;6.172;2023-04-01T07:09:54;97812.84;;;9.69
24586;BMP280;12743;52.262;6.172;2023-04-01T07:15:57;97829.31;;;9.69
24586;BMP280;12743;52.262;6.172;2023-04-01T07:18:41;97826.31;;;9.64
24586;BMP280;12743;52.262;6.172;2023-04-01T07:24:21;97840.47;;;9.73
24586;BMP280;12743;52.262;6.172;2023-04-01T07:27:00;97834.94;;;9.61
24586;BMP280;12743;52.262;6.172;2023-04-01T07:29:33;97845.41;;;9.68
24586;BMP280;12743;52.262;6.172;2023-04-01T07:32:09;97849.19;;;9.63
24586;BMP280;12743;52.262;6.172;2023-04-01T07:35:00;97861.81;;;9.72
24586;BMP280;12743;52.262;6.172;2023-04-01T07:40:23;97867.44;;;9.70
24586;BMP280;12743;52.262;6.172;2023-04-01T07:49:49;97878.16;;;9.90
24586;BMP280;12743;52.262;6.172;2023-04-01T07:52:33;97884.94;;;9.84
24586;BMP280;12743;52.262;6.172;2023-04-01T07:55:38;97889.44;;;9.83
24586;BMP280;12743;52.262;6.172;2023-04-01T07:58:28;97893.91;;;9.86
24586;BMP280;12743;52.262;6.172;2023-04-01T08:01:44;97892.00;;;9.94
24586;BMP280;12743;52.262;6.172;2023-04-01T08:06:28;97905.50;;;9.92
24586;BMP280;12743;52.262;6.172;2023-04-01T08:15:55;97909.88;;;10.06
24586;BMP280;12743;52.262;6.172;2023-04-01T08:21:47;97921.84;;;10.07
24586;BMP280;12743;52.262;6.172;2023-04-01T08:24:25;97925.66;;;10.02
24586;BMP280;12743;52.262;6.172;2023-04-01T08:27:24;97925.50;;;10.17
24586;BMP280;12743;52.262;6.172;2023-04-01T08:30:22;97934.13;;;10.17
24586;BMP280;12743;52.262;6.172;2023-04-01T08:33:05;97918.03;;;10.15
24586;BMP280;12743;52.262;6.172;2023-04-01T08:35:50;97937.50;;;10.18
24586;BMP280;12743;52.262;6.172;2023-04-01T08:38:43;97943.38;;;10.29
24586;BMP280;12743;52.262;6.172;2023-04-01T08:53:38;97952.81;;;10.63
24586;BMP280;12743;52.262;6.172;2023-04-01T09:01:58;97940.16;;;10.55
24586;BMP280;12743;52.262;6.172;2023-04-01T09:05:02;97959.63;;;10.61
24586;BMP280;12743;52.262;6.172;2023-04-01T09:07:35;97962.47;;;10.73
24586;BMP280;12743;52.262;6.172;2023-04-01T09:13:36;97972.34;;;11.00
24586;BMP280;12743;52.262;6.172;2023-04-01T09:16:21;97965.97;;;11.01
24586;BMP280;12743;52.262;6.172;2023-04-01T09:22:22;97963.56;;;11.13
24586;BMP280;12743;52.262;6.172;2023-04-01T09:36:43;97934.50;;;11.54
24586;BMP280;12743;52.262;6.172;2023-04-01T09:45:32;97921.00;;;11.79
24586;BMP280;12743;52.262;6.172;2023-04-01T09:48:04;97912.03;;;11.76
24586;BMP280;12743;52.262;6.172;2023-04-01T09:53:16;97914.56;;;12.06
24586;BMP280;12743;52.262;6.172;2023-04-01T09:58:51;97884.63;;;12.00
24586;BMP280;12743;52.262;6.172;2023-04-01T10:07:46;97915.16;;;11.94
24586;BMP280;12743;52.262;6.172;2023-04-01T10:10:48;97957.78;;;12.05
24586;BMP280;12743;52.262;6.172;2023-04-01T10:16:34;97962.81;;;12.19
24586;BMP280;12743;52.262;6.172;2023-04-01T10:25:00;97990.03;;;12.09
24586;BMP280;12743;52.262;6.172;2023-04-01T10:27:55;97987.03;;;12.34
24586;BMP280;12743;52.262;6.172;2023-04-01T10:36:41;97996.69;;;12.83
24586;BMP280;12743;52.262;6.172;2023-04-01T10:42:28;98017.00;;;12.83
24586;BMP280;12743;52.262;6.172;2023-04-01T10:51:04;98062.47;;;13.07
24586;BMP280;12743;52.262;6.172;2023-04-01T10:56:53;98046.44;;;12.55
24586;BMP280;12743;52.262;6.172;2023-04-01T11:15:34;98094.69;;;12.48
24586;BMP280;12743;52.262;6.172;2023-04-01T11:21:27;98115.81;;;12.68
24586;BMP280;12743;52.262;6.172;2023-04-01T11:27:16;98144.81;;;12.87
24586;BMP280;12743;52.262;6.172;2023-04-01T11:29:55;98149.47;;;13.03
24586;BMP280;12743;52.262;6.172;2023-04-01T11:32:46;98172.88;;;12.98
24586;BMP280;12743;52.262;6.172;2023-04-01T11:38:19;98157.22;;;13.33
24586;BMP280;12743;52.262;6.172;2023-04-01T11:40:59;98175.06;;;13.03
24586;BMP280;12743;52.262;6.172;2023-04-01T11:44:11;98172.66;;;12.88
24586;BMP280;12743;52.262;6.172;2023-04-01T11:55:26;98172.09;;;11.94
24586;BMP280;12743;52.262;6.172;2023-04-01T12:03:54;98165.25;;;11.66
24586;BMP280;12743;52.262;6.172;2023-04-01T12:09:07;98165.88;;;11.40
24586;BMP280;12743;52.262;6.172;2023-04-01T12:14:32;98203.03;;;11.42
24586;BMP280;12743;52.262;6.172;2023-04-01T12:20:01;98203.34;;;11.51
24586;BMP280;12743;52.262;6.172;2023-04-01T12:23:02;98216.78;;;11.60
24586;BMP280;12743;52.262;6.172;2023-04-01T12:25:54;98220.59;;;11.48
24586;BMP280;12743;52.262;6.172;2023-04-01T12:34:45;98237.50;;;11.51
24586;BMP280;12743;52.262;6.172;2023-04-01T12:43:10;98235.47;;;11.66
24586;BMP280;12743;52.262;6.172;2023-04-01T12:45:49;98242.88;;;11.78
24586;BMP280;12743;52.262;6.172;2023-04-01T12:48:35;98242.78;;;11.85
24586;BMP280;12743;52.262;6.172;2023-04-01T12:59:47;98259.47;;;11.75
24586;BMP280;12743;52.262;6.172;2023-04-01T13:02:27;98266.59;;;11.71
24586;BMP280;12743;52.262;6.172;2023-04-01T13:05:15;98264.47;;;11.59
24586;BMP280;12743;52.262;6.172;2023-04-01T13:19:02;98275.69;;;11.63
24586;BMP280;12743;52.262;6.172;2023-04-01T13:21:43;98307.16;;;11.73
24586;BMP280;12743;52.262;6.172;2023-04-01T13:24:35;98312.75;;;11.75
24586;BMP280;12743;52.262;6.172;2023-04-01T13:29:52;98314.75;;;11.64
24586;BMP280;12743;52.262;6.172;2023-04-01T13:32:24;98319.22;;;11.67
24586;BMP280;12743;52.262;6.172;2023-04-01T13:38:26;98337.28;;;11.62
24586;BMP280;12743;52.262;6.172;2023-04-01T13:41:06;98335.50;;;11.48
24586;BMP280;12743;52.262;6.172;2023-04-01T13:43:42;98344.09;;;11.52
24586;BMP280;12743;52.262;6.172;2023-04-01T13:49:19;98341.03;;;11.64
24586;BMP280;12743;52.262;6.172;2023-04-01T13:52:14;98351.94;;;11.59
24586;BMP280;12743;52.262;6.172;2023-04-01T13:58:10;98351.09;;;11.73
24586;BMP280;12743;52.262;6.172;2023-04-01T14:00:54;98355.56;;;11.76
24586;BMP280;12743;52.262;6.172;2023-04-01T14:06:16;98366.56;;;11.64
24586;BMP280;12743;52.262;6.172;2023-04-01T14:11:39;98368.88;;;11.58
24586;BMP280;12743;52.262;6.172;2023-04-01T14:14:26;98384.69;;;11.47
24586;BMP280;12743;52.262;6.172;2023-04-01T14:17:58;98379.47;;;11.44
24586;BMP280;12743;52.262;6.172;2023-04-01T14:20:27;98393.41;;;11.34
24586;BMP280;12743;52.262;6.172;2023-04-01T14:23:13;98380.28;;;11.30
24586;BMP280;12743;52.262;6.172;2023-04-01T14:34:11;98402.63;;;10.69
24586;BMP280;12743;52.262;6.172;2023-04-01T14:37:27;98426.66;;;10.82
24586;BMP280;12743;52.262;6.172;2023-04-01T14:45:23;98452.09;;;10.99
24586;BMP280;12743;52.262;6.172;2023-04-01T14:47:58;98457.72;;;10.98
24586;BMP280;12743;52.262;6.172;2023-04-01T14:50:40;98474.25;;;10.84
24586;BMP280;12743;52.262;6.172;2023-04-01T14:55:44;98474.69;;;10.68
24586;BMP280;12743;52.262;6.172;2023-04-01T14:58:17;98487.41;;;10.77
24586;BMP280;12743;52.262;6.172;2023-04-01T15:03:50;98503.16;;;10.77
24586;BMP280;12743;52.262;6.172;2023-04-01T15:06:46;98496.41;;;10.76
24586;BMP280;12743;52.262;6.172;2023-04-01T15:09:32;98503.13;;;10.84
24586;BMP280;12743;52.262;6.172;2023-04-01T15:15:20;98523.41;;;10.76
24586;BMP280;12743;52.262;6.172;2023-04-01T15:20:49;98535.38;;;10.70
24586;BMP280;12743;52.262;6.172;2023-04-01T15:23:28;98544.78;;;10.57
24586;BMP280;12743;52.262;6.172;2023-04-01T15:29:25;98554.91;;;10.76
24586;BMP280;12743;52.262;6.172;2023-04-01T15:32:30;98558.25;;;10.59
24586;BMP280;12743;52.262;6.172;2023-04-01T15:35:12;98556.38;;;10.63
24586;BMP280;12743;52.262;6.172;2023-04-01T15:37:57;98565.41;;;10.59
24586;BMP280;12743;52.262;6.172;2023-04-01T15:40:34;98564.28;;;10.67
24586;BMP280;12743;52.262;6.172;2023-04-01T15:43:15;98550.38;;;10.45
24586;BMP280;12743;52.262;6.172;2023-04-01T15:45:56;98570.63;;;10.66
24586;BMP280;12743;52.262;6.172;2023-04-01T15:48:33;98588.63;;;10.57
24586;BMP280;12743;52.262;6.172;2023-04-01T15:54:21;98595.00;;;10.49
24586;BMP280;12743;52.262;6.172;2023-04-01T15:57:24;98614.09;;;10.46
24586;BMP280;12743;52.262;6.172;2023-04-01T16:05:24;98628.66;;;10.19
24586;BMP280;12743;52.262;6.172;2023-04-01T16:13:48;98642.88;;;10.14
24586;BMP280;12743;52.262;6.172;2023-04-01T16:16:31;98656.66;;;10.00
24586;BMP280;12743;52.262;6.172;2023-04-01T16:21:48;98657.81;;;10.06
24586;BMP280;12743;52.262;6.172;2023-04-01T16:24:24;98670.84;;;9.85
24586;BMP280;12743;52.262;6.172;2023-04-01T16:29:32;98673.88;;;9.98
24586;BMP280;12743;52.262;6.172;2023-04-01T16:38:07;98675.38;;;9.92
24586;BMP280;12743;52.262;6.172;2023-04-01T16:43:28;98689.16;;;9.82
24586;BMP280;12743;52.262;6.172;2023-04-01T16:46:13;98726.63;;;9.82
24586;BMP280;12743;52.262;6.172;2023-04-01T16:56:54;98750.06;;;9.65
24586;BMP280;12743;52.262;6.172;2023-04-01T16:59:37;98763.22;;;9.68
24586;BMP280;12743;52.262;6.172;2023-04-01T17:02:11;98742.47;;;9.49
24586;BMP280;12743;52.262;6.172;2023-04-01T17:04:55;98785.94;;;9.57
24586;BMP280;12743;52.262;6.172;2023-04-01T17:07:46;98785.91;;;9.54
24586;BMP280;12743;52.262;6.172;2023-04-01T17:21:47;98822.81;;;9.38
24586;BMP280;12743;52.262;6.172;2023-04-01T17:30:35;98848.56;;;9.29
24586;BMP280;12743;52.262;6.172;2023-04-01T17:38:48;98872.69;;;9.12
24586;BMP280;12743;52.262;6.172;2023-04-01T17:41:54;98867.66;;;8.96
24586;BMP280;12743;52.262;6.172;2023-04-01T17:44:47;98875.97;;;9.05
24586;BMP280;12743;52.262;6.172;2023-04-01T17:47:28;98885.63;;;9.01
24586;BMP280;12743;52.262;6.172;2023-04-01T17:52:59;98896.25;;;9.12
24586;BMP280;12743;52.262;6.172;2023-04-01T18:01:06;98926.09;;;9.04
24586;BMP280;12743;52.262;6.172;2023-04-01T18:06:54;98935.81;;;9.07
24586;BMP280;12743;52.262;6.172;2023-04-01T18:15:07;98944.19;;;8.63
24586;BMP280;12743;52.262;6.172;2023-04-01T18:25:47;98986.63;;;8.76
24586;BMP280;12743;52.262;6.172;2023-04-01T18:30:55;99019.38;;;8.66
24586;BMP280;12743;52.262;6.172;2023-04-01T18:36:21;99032.34;;;8.37
24586;BMP280;12743;52.262;6.172;2023-04-01T18:38:52;99035.59;;;8.53
24586;BMP280;12743;52.262;6.172;2023-04-01T18:41:22;99041.47;;;8.46
24586;BMP280;12743;52.262;6.172;2023-04-01T18:47:07;99080.44;;;8.32
24586;BMP280;12743;52.262;6.172;2023-04-01T18:50:23;99078.50;;;8.29
24586;BMP280;12743;52.262;6.172;2023-04-01T18:52:59;99089.44;;;8.35
24586;BMP280;12743;52.262;6.172;2023-04-01T18:55:40;99098.34;;;8.11
24586;BMP280;12743;52.262;6.172;2023-04-01T18:58:34;99105.13;;;8.16
24586;BMP280;12743;52.262;6.172;2023-04-01T19:03:39;99100.19;;;8.30
24586;BMP280;12743;52.262;6.172;2023-04-01T19:06:19;99110.56;;;8.07
24586;BMP280;12743;52.262;6.172;2023-04-01T19:08:48;99121.19;;;8.14
24586;BMP280;12743;52.262;6.172;2023-04-01T19:11:41;99121.19;;;8.14
24586;BMP280;12743;52.262;6.172;2023-04-01T19:17:15;99136.03;;;8.29
24586;BMP280;12743;52.262;6.172;2023-04-01T19:25:20;99162.31;;;8.17
24586;BMP280;12743;52.262;6.172;2023-04-01T19:28:04;99173.03;;;8.31
24586;BMP280;12743;52.262;6.172;2023-04-01T19:44:13;99209.50;;;7.89
24586;BMP280;12743;52.262;6.172;2023-04-01T19:46:48;99189.47;;;7.62
24586;BMP280;12743;52.262;6.172;2023-04-01T19:49:29;99215.69;;;7.81
24586;BMP280;12743;52.262;6.172;2023-04-01T19:52:09;99225.44;;;7.69
24586;BMP280;12743;52.262;6.172;2023-04-01T20:06:10;99232.50;;;7.53
24586;BMP280;12743;52.262;6.172;2023-04-01T20:08:48;99283.19;;;7.64
24586;BMP280;12743;52.262;6.172;2023-04-01T20:11:35;99252.59;;;7.64
24586;BMP280;12743;52.262;6.172;2023-04-01T20:14:13;99283.00;;;7.57
24586;BMP280;12743;52.262;6.172;2023-04-01T20:20:23;99302.81;;;7.58
24586;BMP280;12743;52.262;6.172;2023-04-01T20:27:45;99327.03;;;7.42
24586;BMP280;12743;52.262;6.172;2023-04-01T20:30:38;99330.81;;;7.45
24586;BMP280;12743;52.262;6.172;2023-04-01T20:33:24;99330.00;;;7.41
24586;BMP280;12743;52.262;6.172;2023-04-01T20:46:21;99347.94;;;7.15
24586;BMP280;12743;52.262;6.172;2023-04-01T20:57:38;99398.78;;;7.33
24586;BMP280;12743;52.262;6.172;2023-04-01T21:00:31;99401.97;;;7.26
24586;BMP280;12743;52.262;6.172;2023-04-01T21:05:32;99413.75;;;7.08
24586;BMP280;12743;52.262;6.172;2023-04-01T21:10:43;99431.84;;;7.29
24586;BMP280;12743;52.262;6.172;2023-04-01T21:13:33;99435.47;;;7.12
24586;BMP280;12743;52.262;6.172;2023-04-01T21:19:03;99458.13;;;7.08
24586;BMP280;12743;52.262;6.172;2023-04-01T21:22:04;99456.38;;;7.12
24586;BMP280;12743;52.262;6.172;2023-04-01T21:27:45;99480.31;;;6.78
24586;BMP280;12743;52.262;6.172;2023-04-01T21:33:30;99459.28;;;6.50
24586;BMP280;12743;52.262;6.172;2023-04-01T21:36:25;99491.56;;;6.70
24586;BMP280;12743;52.262;6.172;2023-04-01T21:44:55;99516.41;;;6.88
24586;BMP280;12743;52.262;6.172;2023-04-01T21:54:02;99519.19;;;6.83
24586;BMP280;12743;52.262;6.172;2023-04-01T22:07:19;99533.28;;;6.58
24586;BMP280;12743;52.262;6.172;2023-04-01T22:15:29;99552.53;;;6.33
24586;BMP280;12743;52.262;6.172;2023-04-01T22:18:06;99578.94;;;6.52
24586;BMP280;12743;52.262;6.172;2023-04-01T22:20:55;99577.69;;;6.49
24586;BMP280;12743;52.262;6.172;2023-04-01T22:23:29;99583.56;;;6.46
24586;BMP280;12743;52.262;6.172;2023-04-01T22:26:09;99593.66;;;6.68
24586;BMP280;12743;52.262;6.172;2023-04-01T22:31:45;99605.66;;;6.49
24586;BMP280;12743;52.262;6.172;2023-04-01T22:36:56;99609.72;;;6.38
24586;BMP280;12743;52.262;6.172;2023-04-01T22:47:28;99648.69;;;6.34
24586;BMP280;12743;52.262;6.172;2023-04-01T22:50:16;99642.03;;;6.45
24586;BMP280;12743;52.262;6.172;2023-04-01T22:52:46;99649.09;;;6.24
24586;BMP280;12743;52.262;6.172;2023-04-01T22:55:22;99621.22;;;6.37
24586;BMP280;12743;52.262;6.172;2023-04-01T22:58:08;99660.97;;;6.54
24586;BMP280;12743;52.262;6.172;2023-04-01T23:00:41;99665.56;;;6.37
24586;BMP280;12743;52.262;6.172;2023-04-01T23:03:30;99657.66;;;6.45
24586;BMP280;12743;52.262;6.172;2023-04-01T23:05:59;99686.13;;;6.30
24586;BMP280;12743;52.262;6.172;2023-04-01T23:08:56;99668.16;;;6.37
24586;BMP280;12743;52.262;6.172;2023-04-01T23:11:29;99681.38;;;6.32
24586;BMP280;12743;52.262;6.172;2023-04-01T23:31:37;99718.09;;;6.18
24586;BMP280;12743;52.262;6.172;2023-04-01T23:36:49;99731.59;;;6.20
24586;BMP280;12743;52.262;6.172;2023-04-01T23:39:26;99744.13;;;5.97
24586;BMP280;12743;52.262;6.172;2023-04-01T23:42:04;99737.94;;;6.10
24586;BMP280;12743;52.262;6.172;2023-04-01T23:44:32;99748.88;;;5.95
24586;BMP280;12743;52.262;6.172;2023-04-01T23:46:59;99752.59;;;5.86
24586;BMP280;12743;52.262;6.172;2023-04-01T23:49:32;99751.53;;;6.16
24586;BMP280;12743;52.262;6.172;2023-04-01T23:52:26;99764.75;;;6.11